Time;durP1;ratioP1;P1;durP2;ratioP2;P2;SDS_P1;SDS_P2;PMS_P1;PMS_P2;Temp;Humidity;BMP_temperature;BMP_pressure;BME280_temperature;BME280_humidity;BME280_pressure;Samples;Min_cycle;Max_cycle;Signal;HPM_P1;HPM_P2
2023/01/26 00:01:24;;;;;;;42.22;26.17;;;;;;;5.55;75.07;101545.97;4868279;29;20310;-82
2023/01/26 00:03:59;;;;;;;41.60;27.00;;;;;;;5.39;75.04;101524.00;4843937;29;20059;-80
2023/01/26 00:06:34;;;;;;;48.78;29.52;;;;;;;5.38;75.16;101520.53;4862003;29;20537;-80
2023/01/26 00:09:07;;;;;;;46.13;28.17;;;;;;;5.41;75.07;101516.88;4861110;29;20257;-79
2023/01/26 00:11:38;;;;;;;45.97;27.02;;;;;;;4.69;74.60;101408.31;4867903;29;20329;-81
2023/01/26 00:14:09;;;;;;;41.30;25.92;;;;;;;5.40;75.18;101509.94;4853875;29;20074;-80
2023/01/26 00:16:54;;;;;;;46.83;29.23;;;;;;;5.46;75.06;101510.47;4857396;29;20351;-80
2023/01/26 00:19:29;;;;;;;46.92;28.25;;;;;;;5.39;75.10;101498.56;4852017;29;20052;-80
2023/01/26 00:22:00;;;;;;;49.75;29.08;;;;;;;4.86;75.06;101416.19;4846178;29;20071;-81
2023/01/26 00:24:35;;;;;;;51.33;29.73;;;;;;;4.54;74.88;101367.03;4837685;29;20283;-79
2023/01/26 00:27:26;;;;;;;46.13;28.30;;;;;;;5.46;74.84;101510.47;4855580;29;20099;-79
2023/01/26 00:29:57;;;;;;;47.35;28.00;;;;;;;5.35;74.86;101491.75;4857719;29;20147;-79
2023/01/26 00:32:29;;;;;;;41.67;27.88;;;;;;;5.14;75.47;101475.28;4855834;29;20516;-82
2023/01/26 00:35:15;;;;;;;45.90;28.55;;;;;;;5.38;74.94;101511.78;4838727;29;20549;-83
2023/01/26 00:37:48;;;;;;;44.60;27.15;;;;;;;5.29;75.09;101498.19;4854407;29;20159;-82
2023/01/26 00:40:21;;;;;;;46.15;27.08;;;;;;;5.31;74.82;101485.75;4856292;29;20506;-80
2023/01/26 00:42:48;;;;;;;43.58;26.17;;;;;;;5.25;75.55;101488.75;4852137;29;20165;-81
2023/01/26 00:45:26;;;;;;;42.45;26.67;;;;;;;5.21;75.17;101481.06;4854408;29;20545;-81
2023/01/26 00:47:52;;;;;;;43.90;26.60;;;;;;;5.11;75.68;101478.06;4853464;29;20052;-82
2023/01/26 00:50:21;;;;;;;41.92;27.25;;;;;;;5.22;75.34;101495.94;4855609;29;20232;-79
2023/01/26 00:52:56;;;;;;;42.15;26.92;;;;;;;5.00;75.41;101468.13;4848902;29;20047;-79
2023/01/26 00:55:36;;;;;;;46.58;27.13;;;;;;;4.99;75.24;101455.03;4846680;29;20347;-81
2023/01/26 00:58:14;;;;;;;49.97;26.70;;;;;;;5.20;75.19;101490.75;4840900;29;20141;-81
2023/01/26 01:00:52;;;;;;;39.50;26.00;;;;;;;5.16;75.62;101481.31;4850919;29;20057;-80
2023/01/26 01:03:21;;;;;;;44.63;26.70;;;;;;;5.00;75.38;101451.44;4888101;29;20058;-81
2023/01/26 01:05:48;;;;;;;46.78;26.02;;;;;;;5.11;75.22;101452.59;4889211;29;20063;-81
2023/01/26 01:08:15;;;;;;;44.50;27.95;;;;;;;5.25;75.28;101475.56;4869462;29;20759;-81
2023/01/26 01:10:48;;;;;;;44.42;26.50;;;;;;;5.31;75.37;101477.88;4864503;29;20440;-81
2023/01/26 01:13:21;;;;;;;37.95;23.60;;;;;;;5.29;74.54;101463.97;4866917;29;20624;-80
2023/01/26 01:15:55;;;;;;;39.78;26.15;;;;;;;4.46;74.78;101323.56;4844570;29;20120;-82
2023/01/26 01:18:29;;;;;;;42.97;25.52;;;;;;;5.24;74.87;101451.94;4859376;29;20394;-82
2023/01/26 01:20:58;;;;;;;44.58;25.05;;;;;;;5.07;74.72;101419.50;4874941;29;20050;-79
2023/01/26 01:23:28;;;;;;;41.63;24.42;;;;;;;5.34;75.01;101464.56;4863846;29;20051;-82
2023/01/26 01:25:59;;;;;;;47.47;26.50;;;;;;;5.11;75.43;101441.22;4857940;29;20569;-81
2023/01/26 01:28:41;;;;;;;39.55;25.98;;;;;;;5.20;75.33;101460.97;4871762;29;20546;-81
2023/01/26 01:31:16;;;;;;;42.67;27.08;;;;;;;5.27;75.47;101481.63;4863443;29;20151;-80
2023/01/26 01:33:43;;;;;;;43.67;25.35;;;;;;;4.94;75.07;101413.16;4863850;29;20239;-81
2023/01/26 01:36:12;;;;;;;46.40;26.90;;;;;;;5.20;75.20;101451.28;4886447;28;20062;-80
2023/01/26 01:38:40;;;;;;;43.00;25.95;;;;;;;4.56;74.48;101344.97;4870209;29;20362;-81
2023/01/26 01:41:11;;;;;;;46.42;25.98;;;;;;;5.29;75.11;101465.72;4878169;29;20478;-80
2023/01/26 01:43:45;;;;;;;43.38;25.73;;;;;;;5.21;75.16;101462.66;4879223;29;20050;-78
2023/01/26 01:46:30;;;;;;;49.47;26.77;;;;;;;5.12;75.38;101450.81;4887812;28;20051;-80
2023/01/26 01:49:13;;;;;;;44.85;27.38;;;;;;;5.16;75.57;101455.00;4880307;29;20076;-78
2023/01/26 01:52:39;;;;;;;44.22;26.48;;;;;;;5.04;75.61;101434.56;4860580;29;20494;-81
2023/01/26 01:55:12;;;;;;;41.78;24.75;;;;;;;5.11;75.00;101441.22;4830057;29;20479;-82
2023/01/26 01:57:51;;;;;;;45.63;27.55;;;;;;;4.95;74.73;101414.00;4868824;29;20624;-81
2023/01/26 02:00:25;;;;;;;44.78;26.33;;;;;;;5.13;75.16;101449.91;4882507;29;20063;-82
2023/01/26 02:03:18;;;;;;;38.72;25.58;;;;;;;4.67;75.55;101392.63;4876192;29;20056;-82
2023/01/26 02:06:09;;;;;;;44.35;27.02;;;;;;;5.16;75.13;101452.34;4892427;28;20062;-82
2023/01/26 02:08:46;;;;;;;41.92;27.25;;;;;;;4.91;75.37;101411.53;4894941;29;20130;-82
2023/01/26 02:11:32;;;;;;;43.30;26.90;;;;;;;4.93;75.61;101438.63;4887955;28;20389;-81
2023/01/26 02:14:26;;;;;;;40.13;27.00;;;;;;;5.03;75.25;101438.16;4893274;29;20059;-80
2023/01/26 02:17:13;;;;;;;39.50;25.42;;;;;;;4.90;75.21;101417.75;4890752;29;20055;-81
2023/01/26 02:20:19;;;;;;;39.80;26.77;;;;;;;4.64;74.86;101376.16;4887139;29;20052;-81
2023/01/26 02:23:08;;;;;;;37.25;25.00;;;;;;;5.01;75.24;101440.00;4889932;29;20131;-83
2023/01/26 02:26:05;;;;;;;42.70;26.90;;;;;;;4.89;75.54;101437.06;4894297;29;20079;-82
2023/01/26 02:28:32;;;;;;;36.85;24.50;;;;;;;4.85;76.13;101437.31;4866634;29;20048;-80
2023/01/26 02:31:03;;;;;;;38.47;25.65;;;;;;;4.60;75.92;101379.88;4887224;29;20111;-80
2023/01/26 02:33:34;;;;;;;39.53;26.67;;;;;;;4.74;75.87;101398.41;4877618;29;20200;-82
2023/01/26 02:36:09;;;;;;;44.92;27.02;;;;;;;4.82;75.86;101419.91;4886739;29;20454;-82
2023/01/26 02:38:41;;;;;;;44.33;26.02;;;;;;;4.52;75.75;101366.28;4911416;28;20480;-82
2023/01/26 02:44:11;;;;;;;40.17;25.05;;;;;;;4.76;75.55;101399.19;4873313;29;20059;-80
2023/01/26 02:46:43;;;;;;;40.80;25.07;;;;;;;4.79;75.43;101395.56;4904811;29;20130;-81
2023/01/26 02:52:10;;;;;;;37.60;25.20;;;;;;;4.68;75.57;101375.94;4914849;29;20073;-80
2023/01/26 02:57:44;;;;;;;37.75;24.02;;;;;;;4.65;75.79;101369.94;4923633;29;20179;-82
2023/01/26 03:00:35;;;;;;;38.05;23.35;;;;;;;4.49;75.21;101349.72;4893909;29;20056;-81
2023/01/26 03:03:21;;;;;;;38.60;25.25;;;;;;;4.56;75.71;101376.53;4892507;29;20513;-79
2023/01/26 03:05:48;;;;;;;35.63;23.90;;;;;;;4.38;76.04;101352.03;4902214;28;20055;-79
2023/01/26 03:08:20;;;;;;;38.60;24.73;;;;;;;4.40;75.59;101355.44;4911286;28;20313;-79
2023/01/26 03:11:03;;;;;;;36.00;24.55;;;;;;;4.61;75.88;101376.28;4894969;28;20074;-80
2023/01/26 03:13:54;;;;;;;45.38;24.35;;;;;;;4.53;75.26;101376.69;4874838;28;20334;-82
2023/01/26 03:16:25;;;;;;;32.88;23.92;;;;;;;3.92;76.06;101270.28;4876613;29;20071;-80
2023/01/26 03:27:47;;;;;;;36.78;23.35;;;;;;;4.38;76.32;101352.03;4874755;29;20307;-81
2023/01/26 03:30:18;;;;;;;37.58;25.52;;;;;;;4.47;75.84;101366.50;4869493;29;20380;-82
2023/01/26 03:32:44;;;;;;;43.03;25.45;;;;;;;4.45;75.76;101371.00;4878026;29;20079;-81
2023/01/26 03:35:14;;;;;;;42.92;25.98;;;;;;;4.42;76.17;101366.75;4873099;29;20056;-82
2023/01/26 03:37:45;;;;;;;39.95;24.33;;;;;;;3.82;75.77;101263.78;4898331;29;20062;-81
2023/01/26 03:57:45;;;;;;;40.60;25.45;;;;;;;3.95;76.08;101272.75;4898046;29;20102;-82
2023/01/26 04:00:18;;;;;;;39.75;25.63;;;;;;;4.29;75.79;101332.31;4890293;29;20689;-80
2023/01/26 04:08:43;;;;;;;33.38;23.75;;;;;;;4.49;75.79;101339.19;4896339;29;20502;-80
2023/01/26 04:11:10;;;;;;;40.33;25.60;;;;;;;4.56;75.21;101334.44;4893289;29;20067;-81
2023/01/26 04:22:13;;;;;;;35.75;23.55;;;;;;;4.55;74.67;101326.66;4903419;29;20054;-80
2023/01/26 04:24:44;;;;;;;35.97;22.80;;;;;;;4.38;75.28;101294.19;4904080;28;20044;-81
2023/01/26 04:27:13;;;;;;;39.13;23.50;;;;;;;4.05;75.48;101247.72;4905861;28;20332;-80
2023/01/26 04:29:40;;;;;;;36.67;22.27;;;;;;;3.94;75.53;101218.50;4890569;29;20047;-80
2023/01/26 04:32:12;;;;;;;34.95;24.80;;;;;;;4.54;75.26;101309.16;4890683;29;20087;-81
2023/01/26 04:34:41;;;;;;;38.90;24.80;;;;;;;3.88;75.06;101189.91;4896701;29;20043;-79
2023/01/26 04:37:13;;;;;;;34.88;24.27;;;;;;;4.30;75.59;101264.84;4891179;29;20056;-82
2023/01/26 04:39:52;;;;;;;34.28;23.95;;;;;;;4.62;75.12;101317.53;4899457;29;20059;-80
2023/01/26 04:42:35;;;;;;;42.72;23.65;;;;;;;4.28;75.01;101253.56;4880683;29;20059;-82
2023/01/26 04:45:02;;;;;;;33.58;23.33;;;;;;;4.60;75.53;101298.34;4891093;29;20155;-80
2023/01/26 04:47:32;;;;;;;35.15;23.00;;;;;;;4.78;75.13;101300.00;4892412;29;20048;-80
2023/01/26 04:50:04;;;;;;;37.40;23.00;;;;;;;4.71;75.29;101299.47;4891675;29;20222;-81
2023/01/26 04:52:31;;;;;;;37.72;22.13;;;;;;;4.38;74.44;101236.38;4899668;29;20059;-81
2023/01/26 04:55:00;;;;;;;40.95;24.08;;;;;;;4.68;74.54;101296.13;4895317;29;20051;-81
2023/01/26 04:57:27;;;;;;;36.60;23.30;;;;;;;4.61;74.87;101286.88;4906597;29;20127;-81
2023/01/26 04:59:58;;;;;;;36.00;23.95;;;;;;;4.59;74.55;101273.00;4894084;29;20403;-81
2023/01/26 05:02:29;;;;;;;33.47;22.08;;;;;;;4.68;74.81;101293.50;4902199;29;20368;-80
2023/01/26 05:04:58;;;;;;;33.50;22.48;;;;;;;4.69;74.93;101282.06;4889614;29;20106;-81
2023/01/26 05:07:24;;;;;;;36.83;23.48;;;;;;;4.68;74.40;101277.72;4902676;29;20052;-80
2023/01/26 05:09:51;;;;;;;39.90;23.42;;;;;;;4.71;74.11;101272.34;4887067;29;20524;-79
2023/01/26 05:12:33;;;;;;;34.20;22.80;;;;;;;4.62;74.00;101257.03;4899885;29;20416;-81
2023/01/26 05:15:01;;;;;;;40.10;22.65;;;;;;;4.57;73.82;101257.28;4888182;29;20447;-79
2023/01/26 05:17:28;;;;;;;36.53;22.33;;;;;;;3.49;73.98;101072.88;4901045;29;20531;-80
2023/01/26 05:19:55;;;;;;;38.17;23.38;;;;;;;4.26;74.50;101203.69;4883223;29;20320;-80
2023/01/26 05:22:31;;;;;;;35.05;22.10;;;;;;;4.74;73.94;101266.91;4880511;29;20116;-81
2023/01/26 05:24:57;;;;;;;34.80;23.20;;;;;;;4.40;74.03;101215.25;4893344;29;20163;-80
2023/01/26 05:27:32;;;;;;;34.38;22.15;;;;;;;4.64;73.90;101263.06;4884989;29;20095;-81
2023/01/26 05:29:59;;;;;;;37.47;21.73;;;;;;;4.38;74.24;101214.50;4883260;29;20048;-81
2023/01/26 05:32:30;;;;;;;36.28;22.88;;;;;;;4.59;73.83;101259.84;4871990;29;20087;-79
2023/01/26 05:35:04;;;;;;;37.15;21.33;;;;;;;4.57;74.32;101266.94;4880491;29;20059;-82
2023/01/26 05:37:40;;;;;;;43.85;22.08;;;;;;;4.69;74.35;101282.91;4903264;29;20553;-80
2023/01/26 05:40:15;;;;;;;34.78;23.88;;;;;;;4.66;74.19;101274.31;4904948;29;20043;-81
2023/01/26 05:42:42;;;;;;;39.45;22.63;;;;;;;4.04;74.20;101192.63;4902294;29;20060;-80
2023/01/26 05:45:09;;;;;;;32.75;21.27;;;;;;;4.58;74.21;101276.53;4900976;29;20446;-81
2023/01/26 05:47:36;;;;;;;34.78;22.10;;;;;;;4.59;74.02;101280.88;4901172;28;20447;-80
2023/01/26 05:50:05;;;;;;;33.95;21.55;;;;;;;4.60;74.65;101282.56;4921763;28;20496;-80
2023/01/26 05:52:32;;;;;;;35.08;21.55;;;;;;;4.60;73.99;101272.03;4909444;28;20055;-80
2023/01/26 05:55:02;;;;;;;39.22;20.80;;;;;;;4.60;74.47;101286.03;4891769;28;20140;-82
2023/01/26 05:57:29;;;;;;;35.13;22.25;;;;;;;4.15;74.42;101218.31;4902263;29;20483;-79
2023/01/26 05:59:56;;;;;;;38.22;21.98;;;;;;;4.35;73.87;101246.22;4900981;29;20467;-80
2023/01/26 06:02:29;;;;;;;32.15;20.90;;;;;;;4.39;74.52;101253.81;4872828;29;20144;-80
2023/01/26 06:04:57;;;;;;;31.27;20.98;;;;;;;4.66;73.67;101282.22;4897687;29;20185;-80
2023/01/26 06:07:25;;;;;;;34.05;21.05;;;;;;;4.36;73.82;101240.00;4888682;29;20055;-80
2023/01/26 06:09:52;;;;;;;32.28;22.15;;;;;;;4.45;73.81;101252.66;4897751;29;20063;-80
2023/01/26 06:12:34;;;;;;;36.38;21.80;;;;;;;4.62;73.80;101289.44;4890154;29;20059;-79
2023/01/26 06:15:04;;;;;;;37.33;21.73;;;;;;;4.35;73.15;101220.75;4902510;29;20047;-81
2023/01/26 06:17:31;;;;;;;30.58;21.42;;;;;;;4.59;73.86;101280.88;4918138;28;20051;-81
2023/01/26 06:19:58;;;;;;;39.30;21.92;;;;;;;4.23;73.82;101229.28;4917165;28;20260;-82
2023/01/26 06:22:25;;;;;;;38.38;21.75;;;;;;;4.50;74.40;101290.94;4899956;29;20273;-80
2023/01/26 06:24:52;;;;;;;33.95;20.83;;;;;;;4.52;73.81;101292.66;4898393;29;20158;-81
2023/01/26 06:27:19;;;;;;;31.73;20.52;;;;;;;4.34;73.86;101261.09;4895991;29;20131;-82
2023/01/26 06:29:47;;;;;;;30.20;21.02;;;;;;;4.42;73.72;101273.88;4907431;29;20477;-82
2023/01/26 06:32:20;;;;;;;34.67;21.83;;;;;;;4.33;74.06;101272.56;4886874;29;20052;-83
2023/01/26 06:34:52;;;;;;;31.73;21.43;;;;;;;4.38;74.05;101277.59;4890106;29;20055;-82
2023/01/26 06:37:28;;;;;;;34.47;22.73;;;;;;;4.35;73.88;101286.47;4898604;29;20345;-82
2023/01/26 06:40:05;;;;;;;32.30;21.25;;;;;;;4.32;74.20;101284.03;4902834;29;20448;-83
2023/01/26 06:42:32;;;;;;;36.42;21.95;;;;;;;4.18;74.10;101252.34;4914443;28;20392;-80
2023/01/26 06:45:01;;;;;;;37.10;22.98;;;;;;;3.94;73.58;101226.38;4906586;29;20058;-80
2023/01/26 06:47:32;;;;;;;37.97;21.23;;;;;;;4.00;73.69;101228.69;4905538;29;20783;-80
2023/01/26 06:50:06;;;;;;;36.85;21.10;;;;;;;4.17;73.84;101259.34;4890481;29;20151;-82
2023/01/26 06:52:35;;;;;;;33.00;21.25;;;;;;;4.27;74.32;101286.88;4903256;29;20417;-82
2023/01/26 06:55:18;;;;;;;40.10;22.42;;;;;;;3.91;74.42;101217.81;4883759;29;20410;-81
2023/01/26 06:57:47;;;;;;;33.78;21.08;;;;;;;4.00;74.36;101256.75;4886535;28;20273;-82
2023/01/26 07:00:14;;;;;;;40.30;21.65;;;;;;;4.00;74.54;101247.06;4898883;28;20119;-77
2023/01/26 07:02:45;;;;;;;34.50;21.60;;;;;;;3.79;74.86;101211.44;4863511;29;20055;-80
2023/01/26 07:05:13;;;;;;;31.08;21.05;;;;;;;4.20;74.81;101292.50;4892428;29;20494;-78
2023/01/26 07:07:40;;;;;;;37.42;20.15;;;;;;;4.04;74.58;101274.91;4878167;29;20858;-79
2023/01/26 07:10:08;;;;;;;32.83;20.45;;;;;;;4.13;74.60;101283.28;4893472;29;20074;-81
2023/01/26 07:12:45;;;;;;;34.10;21.35;;;;;;;4.02;74.15;101268.03;4892407;29;20048;-80
2023/01/26 07:15:16;;;;;;;31.08;19.38;;;;;;;4.21;73.66;101291.59;4892142;28;20524;-81
2023/01/26 07:17:49;;;;;;;33.88;19.75;;;;;;;4.36;73.19;101296.06;4870939;28;20051;-80
2023/01/26 07:20:27;;;;;;;29.67;17.35;;;;;;;4.43;72.66;101292.19;4872864;29;20063;-78
2023/01/26 07:23:00;;;;;;;28.45;19.05;;;;;;;3.47;72.55;101153.50;4859562;29;20501;-81
2023/01/26 07:25:26;;;;;;;31.17;19.27;;;;;;;4.46;73.07;101306.94;4875562;29;20479;-79
2023/01/26 07:27:57;;;;;;;31.38;17.77;;;;;;;4.36;72.83;101284.69;4873311;29;20086;-79
2023/01/26 07:30:25;;;;;;;32.67;18.98;;;;;;;4.55;72.54;101306.47;4883285;29;20060;-78
2023/01/26 07:33:01;;;;;;;33.75;19.35;;;;;;;4.26;72.81;101252.78;4857840;29;20410;-78
2023/01/26 07:35:46;;;;;;;26.70;17.95;;;;;;;4.59;72.83;101286.13;4885919;28;20541;-80
2023/01/26 07:38:43;;;;;;;34.13;19.83;;;;;;;3.99;72.65;101179.72;4871053;29;20337;-80
2023/01/26 07:41:39;;;;;;;32.17;20.35;;;;;;;4.10;71.88;101199.31;4869064;29;20051;-81
2023/01/26 07:44:12;;;;;;;32.42;19.67;;;;;;;4.73;71.90;101288.84;4901738;28;20515;-80
2023/01/26 07:46:43;;;;;;;32.25;20.30;;;;;;;3.35;71.60;101064.88;4891393;29;20331;-78
2023/01/26 07:49:18;;;;;;;34.60;20.40;;;;;;;4.59;71.37;101259.84;4893714;29;20078;-81
2023/01/26 07:51:45;;;;;;;33.83;20.83;;;;;;;4.75;71.42;101280.88;4876148;29;20303;-78
2023/01/26 07:54:12;;;;;;;30.80;18.92;;;;;;;4.79;71.67;101298.22;4902231;29;20051;-80
2023/01/26 07:56:49;;;;;;;28.10;18.77;;;;;;;4.39;71.07;101226.69;4878005;29;20052;-79
2023/01/26 07:59:32;;;;;;;28.35;17.45;;;;;;;4.79;70.79;101299.06;4878861;29;20056;-81
2023/01/26 08:02:16;;;;;;;29.73;18.25;;;;;;;4.80;70.60;101289.38;4861393;29;20136;-80
2023/01/26 08:05:05;;;;;;;25.75;15.02;;;;;;;4.39;69.80;101216.19;4871951;29;20143;-81
2023/01/26 08:07:56;;;;;;;25.45;16.48;;;;;;;4.72;70.55;101274.84;4899122;28;20569;-79
2023/01/26 08:10:37;;;;;;;24.48;16.42;;;;;;;4.82;69.45;101290.16;4890204;28;20055;-77
2023/01/26 08:13:06;;;;;;;24.77;15.07;;;;;;;4.86;68.64;101273.28;4881699;29;20151;-80
2023/01/26 08:16:08;;;;;;;31.77;16.95;;;;;;;5.01;68.96;101293.47;4879462;29;20067;-80
2023/01/26 08:18:35;;;;;;;28.17;18.77;;;;;;;5.01;68.39;101298.75;4891583;29;20493;-80
2023/01/26 08:21:17;;;;;;;25.95;15.30;;;;;;;4.93;68.37;101280.75;4884295;29;20061;-80
2023/01/26 08:23:50;;;;;;;29.02;16.48;;;;;;;4.70;68.07;101242.53;4902974;28;20193;-79
2023/01/26 08:26:21;;;;;;;29.38;16.40;;;;;;;5.14;67.95;101301.56;4889102;29;20048;-81
2023/01/26 08:28:48;;;;;;;25.98;16.05;;;;;;;4.89;67.60;101263.41;4897604;29;20758;-81
2023/01/26 08:31:28;;;;;;;27.17;16.40;;;;;;;5.06;67.72;101293.25;4895755;29;20048;-81
2023/01/26 08:34:00;;;;;;;26.15;16.27;;;;;;;4.82;67.60;101246.28;4894185;29;20058;-81
2023/01/26 08:36:30;;;;;;;25.20;16.42;;;;;;;4.90;67.37;101249.34;4899478;29;20047;-82
2023/01/26 08:38:58;;;;;;;23.55;15.30;;;;;;;5.04;67.65;101274.03;4890517;29;20453;-79
2023/01/26 08:41:29;;;;;;;23.58;14.10;;;;;;;5.20;65.96;101287.22;4884365;29;20048;-81
2023/01/26 08:43:58;;;;;;;26.33;14.68;;;;;;;4.93;65.14;101249.19;4898463;29;20044;-81
2023/01/26 08:46:32;;;;;;;21.98;14.70;;;;;;;5.12;66.64;101266.56;4897400;29;20059;-80
2023/01/26 08:48:59;;;;;;;23.98;14.35;;;;;;;5.24;65.74;101284.34;4899761;29;20310;-82
2023/01/26 08:51:26;;;;;;;24.83;14.27;;;;;;;5.19;65.17;101267.91;4898497;29;20056;-79
2023/01/26 08:54:07;;;;;;;24.48;16.05;;;;;;;5.32;65.24;101282.13;4901134;28;20549;-79
2023/01/26 08:56:37;;;;;;;30.08;15.52;;;;;;;5.19;64.94;101241.59;4901617;28;20403;-81
2023/01/26 08:59:12;;;;;;;22.92;14.52;;;;;;;5.33;64.32;101256.63;4879877;28;20181;-78
2023/01/26 09:01:42;;;;;;;23.55;15.23;;;;;;;5.48;64.33;101279.44;4890327;29;20520;-79
2023/01/26 09:04:09;;;;;;;21.65;13.95;;;;;;;5.48;63.35;101271.53;4887156;29;20478;-80
2023/01/26 09:06:36;;;;;;;26.38;16.10;;;;;;;5.26;63.28;101240.31;4896117;29;20047;-79
2023/01/26 09:09:11;;;;;;;23.83;14.40;;;;;;;5.49;63.66;101281.16;4893802;29;20052;-78
2023/01/26 09:11:46;;;;;;;24.02;14.77;;;;;;;5.35;64.64;101260.88;4895537;29;20055;-83
2023/01/26 09:14:17;;;;;;;24.55;14.75;;;;;;;5.23;64.34;101239.66;4906598;28;20432;-80
2023/01/26 09:16:46;;;;;;;23.52;15.20;;;;;;;4.82;63.96;101154.19;4907994;29;20179;-80
2023/01/26 09:19:27;;;;;;;26.30;15.32;;;;;;;5.26;63.71;101239.47;4892263;28;20058;-81
2023/01/26 09:21:56;;;;;;;22.38;13.73;;;;;;;5.44;64.06;101280.56;4908072;28;20061;-77
2023/01/26 09:24:25;;;;;;;21.67;14.48;;;;;;;5.37;64.37;101259.94;4914620;28;20059;-80
2023/01/26 09:26:57;;;;;;;26.50;15.93;;;;;;;5.35;64.45;101250.34;4917988;28;20069;-78
2023/01/26 09:29:32;;;;;;;26.27;16.17;;;;;;;5.54;64.51;101283.53;4917725;28;20278;-78
2023/01/26 09:32:01;;;;;;;21.73;15.07;;;;;;;5.64;63.47;101273.31;4918724;28;20486;-80
2023/01/26 09:34:32;;;;;;;21.98;14.13;;;;;;;5.21;62.16;101200.25;4916737;28;20055;-81
2023/01/26 09:37:02;;;;;;;25.33;14.48;;;;;;;5.48;62.68;101253.13;4900282;29;20413;-79
2023/01/26 09:39:29;;;;;;;23.95;14.73;;;;;;;5.66;62.91;101280.19;4907682;28;20428;-78
2023/01/26 09:42:10;;;;;;;28.35;14.80;;;;;;;5.17;62.86;101203.13;4895530;29;20103;-76
2023/01/26 09:44:47;;;;;;;24.73;15.40;;;;;;;5.38;63.80;101237.94;4891234;29;20062;-78
2023/01/26 09:47:50;;;;;;;25.70;16.05;;;;;;;5.54;62.84;101255.41;4899927;29;20248;-78
2023/01/26 09:50:29;;;;;;;24.77;15.18;;;;;;;5.71;63.59;101278.16;4912914;28;20138;-79
2023/01/26 09:53:15;;;;;;;22.83;13.88;;;;;;;5.65;61.94;101251.31;4910626;28;20054;-80
2023/01/26 09:55:52;;;;;;;20.80;14.20;;;;;;;5.69;62.35;101272.13;4915891;28;20106;-79
2023/01/26 09:58:39;;;;;;;22.40;13.57;;;;;;;5.31;61.27;101208.47;4909064;28;20295;-79
2023/01/26 10:01:40;;;;;;;25.02;14.35;;;;;;;5.84;62.00;101283.53;4900164;29;20393;-78
2023/01/26 10:04:25;;;;;;;22.92;13.07;;;;;;;5.94;61.89;101294.44;4914878;28;20047;-78
2023/01/26 10:07:00;;;;;;;25.77;13.73;;;;;;;5.79;61.66;101243.44;4890718;29;20048;-80
2023/01/26 10:09:32;;;;;;;26.63;14.88;;;;;;;6.01;61.80;101266.78;4881136;29;20663;-80
2023/01/26 10:12:06;;;;;;;23.60;14.53;;;;;;;5.86;62.51;101228.13;4895507;29;20270;-77
2023/01/26 10:14:51;;;;;;;22.00;14.15;;;;;;;6.06;61.61;101256.81;4881226;29;20051;-79
2023/01/26 10:17:53;;;;;;;20.77;12.88;;;;;;;6.16;62.51;101257.94;4897886;29;20054;-77
2023/01/26 10:20:32;;;;;;;21.70;12.98;;;;;;;6.28;61.57;101255.53;4852884;29;20044;-80
2023/01/26 10:23:14;;;;;;;23.10;13.68;;;;;;;6.26;61.09;101236.31;4867747;29;20055;-80
2023/01/26 10:25:50;;;;;;;24.40;13.73;;;;;;;6.57;61.01;101257.22;4880148;29;20078;-79
2023/01/26 10:28:34;;;;;;;24.02;14.10;;;;;;;6.23;61.63;101210.13;4891125;29;20058;-79
2023/01/26 10:31:11;;;;;;;26.88;14.65;;;;;;;6.45;61.02;101239.50;4852033;29;20059;-80
2023/01/26 10:34:00;;;;;;;26.30;14.45;;;;;;;6.22;59.79;101192.63;4849510;29;20114;-78
2023/01/26 10:36:30;;;;;;;24.40;14.25;;;;;;;6.38;60.47;101227.63;4882181;29;20056;-79
2023/01/26 10:39:15;;;;;;;23.55;14.40;;;;;;;6.51;60.52;101236.50;4893258;29;20056;-80
2023/01/26 10:42:01;;;;;;;24.17;14.98;;;;;;;6.67;59.79;101240.81;4867433;29;20498;-79
2023/01/26 10:44:38;;;;;;;25.98;14.73;;;;;;;6.62;60.78;101244.59;4873738;29;20138;-80
2023/01/26 10:47:16;;;;;;;21.80;14.55;;;;;;;6.23;60.54;101173.22;4880179;29;20405;-80
2023/01/26 10:49:44;;;;;;;23.17;14.82;;;;;;;6.50;61.16;101203.16;4875956;29;20056;-78
2023/01/26 10:52:17;;;;;;;23.45;14.23;;;;;;;6.35;60.31;101162.75;4869906;29;20083;-78
2023/01/26 10:55:19;;;;;;;23.80;14.45;;;;;;;5.84;58.73;101058.72;4888787;29;20091;-79
2023/01/26 10:57:59;;;;;;;22.13;14.27;;;;;;;6.83;59.52;101196.69;4882738;29;20365;-78
2023/01/26 11:00:55;;;;;;;28.95;15.30;;;;;;;6.84;58.90;101188.69;4873776;29;20289;-79
2023/01/26 11:03:27;;;;;;;28.80;14.85;;;;;;;6.53;59.30;101139.66;4875948;29;20059;-78
2023/01/26 11:06:21;;;;;;;;;;;;;;;6.90;59.53;101205.94;4881520;29;20562;-78
2023/01/26 11:08:48;;;;;;;24.27;14.05;;;;;;;6.69;59.67;101165.06;4850490;29;19931;-79
2023/01/26 11:11:33;;;;;;;23.50;13.77;;;;;;;6.94;58.96;101196.88;4864873;29;20052;-80
2023/01/26 11:14:16;;;;;;;21.80;14.10;;;;;;;6.64;59.97;101142.44;4868077;29;20359;-78
2023/01/26 11:16:59;;;;;;;20.10;13.07;;;;;;;6.79;59.57;101163.53;4844441;29;20301;-79
2023/01/26 11:19:47;;;;;;;22.40;14.07;;;;;;;7.17;59.40;101176.06;4859618;29;20060;-79
2023/01/26 11:22:55;;;;;;;22.88;13.95;;;;;;;7.25;59.01;101131.47;4846219;29;20059;-78
2023/01/26 11:25:50;;;;;;;23.50;14.25;;;;;;;7.59;58.76;101163.56;4856315;29;20579;-77
2023/01/26 11:28:45;;;;;;;24.60;14.95;;;;;;;7.53;57.95;101156.06;4840471;29;20111;-78
2023/01/26 11:31:23;;;;;;;22.38;14.60;;;;;;;7.49;58.08;101164.19;4848882;29;20055;-79
2023/01/26 11:33:58;;;;;;;23.73;14.57;;;;;;;7.24;58.52;101127.16;4861835;29;20466;-79
2023/01/26 11:36:56;;;;;;;22.75;14.63;;;;;;;6.58;59.38;101016.22;4873532;29;20518;-80
2023/01/26 11:40:05;;;;;;;21.77;14.60;;;;;;;6.93;58.72;101071.09;4870736;29;20076;-80
2023/01/26 11:43:04;;;;;;;21.88;13.85;;;;;;;6.31;59.07;100960.00;4871693;29;20052;-82
2023/01/26 11:45:55;;;;;;;21.90;14.40;;;;;;;7.35;58.54;101137.84;4868077;29;20078;-79
2023/01/26 11:48:54;;;;;;;24.88;13.50;;;;;;;7.07;58.71;101060.47;4897126;29;20074;-79
2023/01/26 11:51:48;;;;;;;24.23;13.98;;;;;;;7.40;59.28;101119.91;4873271;29;20217;-81
2023/01/26 11:54:22;;;;;;;19.08;13.35;;;;;;;7.42;59.10;101118.00;4873147;29;20137;-80
2023/01/26 11:56:55;;;;;;;22.73;13.63;;;;;;;7.42;59.38;101104.78;4870583;29;20517;-80
2023/01/26 11:59:38;;;;;;;24.60;14.80;;;;;;;7.24;58.87;101071.72;4863806;29;20591;-79
2023/01/26 12:02:37;;;;;;;24.58;14.23;;;;;;;7.36;58.96;101089.38;4851940;29;20171;-80
2023/01/26 12:05:24;;;;;;;24.55;14.98;;;;;;;7.47;59.53;101084.19;4882105;29;20055;-79
2023/01/26 12:07:59;;;;;;;29.08;15.70;;;;;;;7.22;58.73;101031.34;4895120;29;20138;-80
2023/01/26 12:10:38;;;;;;;24.35;15.23;;;;;;;7.21;59.05;101056.91;4908716;29;20081;-79
2023/01/26 12:13:38;;;;;;;24.25;14.57;;;;;;;7.51;59.36;101073.44;4904899;29;20138;-79
2023/01/26 12:16:36;;;;;;;23.73;14.23;;;;;;;7.49;58.93;101063.78;4901606;29;20051;-77
2023/01/26 12:19:30;;;;;;;22.83;13.88;;;;;;;7.46;59.91;101071.94;4894549;29;20349;-78
2023/01/26 12:22:30;;;;;;;27.65;14.55;;;;;;;7.45;59.36;101056.19;4898712;28;20054;-78
2023/01/26 12:25:20;;;;;;;;;;;;;;;7.58;58.97;101053.56;4872258;29;20055;-79
2023/01/26 12:28:22;;;;;;;21.30;13.43;;;;;;;7.45;58.28;101013.91;4873217;28;20242;-78
2023/01/26 12:31:32;;;;;;;19.90;13.10;;;;;;;7.49;58.77;101037.38;4880069;28;20102;-78
2023/01/26 12:34:07;;;;;;;20.42;12.73;;;;;;;7.58;59.43;101046.47;4898446;29;20502;-79
2023/01/26 12:37:04;;;;;;;26.40;13.40;;;;;;;7.62;59.50;101045.31;4913680;28;20219;-76
2023/01/26 12:39:44;;;;;;;22.08;13.05;;;;;;;7.55;58.78;101009.69;4917055;28;20458;-77
2023/01/26 12:42:21;;;;;;;24.02;13.45;;;;;;;7.61;58.82;101026.91;4892375;29;20789;-79
2023/01/26 12:45:00;;;;;;;23.15;13.10;;;;;;;7.64;59.51;101031.97;4903223;28;20051;-78
2023/01/26 12:47:27;;;;;;;24.27;13.93;;;;;;;7.69;59.62;101024.56;4886475;29;20323;-77
2023/01/26 12:50:29;;;;;;;21.35;13.07;;;;;;;7.80;58.80;101023.84;4903276;29;20055;-79